sensor_id;sensor_type;location;lat;lon;timestamp;pressure;altitude;pressure_sealevel;temperature;humidity
66398;BME280;54877;51.504;3.894;2023-05-03T00:00:47;102971.09;;;11.18;53.99
66398;BME280;54877;51.504;3.894;2023-05-03T00:03:13;102971.94;;;11.20;54.15
66398;BME280;54877;51.504;3.894;2023-05-03T00:05:38;102974.56;;;11.21;54.17
66398;BME280;54877;51.504;3.894;2023-05-03T00:08:03;102976.28;;;11.24;54.15
66398;BME280;54877;51.504;3.894;2023-05-03T00:10:29;102974.53;;;11.23;54.21
66398;BME280;54877;51.504;3.894;2023-05-03T00:12:54;102979.78;;;11.26;54.18
66398;BME280;54877;51.504;3.894;2023-05-03T00:15:20;102974.44;;;11.29;54.05
66398;BME280;54877;51.504;3.894;2023-05-03T00:17:46;102976.16;;;11.30;54.22
66398;BME280;54877;51.504;3.894;2023-05-03T00:20:12;102977.00;;;11.34;54.15
66398;BME280;54877;51.504;3.894;2023-05-03T00:22:37;102974.28;;;11.35;54.07
66398;BME280;54877;51.504;3.894;2023-05-03T00:25:02;102970.69;;;11.39;54.20
66398;BME280;54877;51.504;3.894;2023-05-03T00:27:28;102966.31;;;11.37;54.23
66398;BME280;54877;51.504;3.894;2023-05-03T00:29:54;102967.22;;;11.36;54.10
66398;BME280;54877;51.504;3.894;2023-05-03T00:32:19;102965.44;;;11.38;54.29
66398;BME280;54877;51.504;3.894;2023-05-03T00:34:51;102973.38;;;11.38;54.24
66398;BME280;54877;51.504;3.894;2023-05-03T00:37:17;102968.09;;;11.38;54.24
66398;BME280;54877;51.504;3.894;2023-05-03T00:39:42;102972.50;;;11.37;54.30
66398;BME280;54877;51.504;3.894;2023-05-03T00:42:08;102969.00;;;11.35;54.62
66398;BME280;54877;51.504;3.894;2023-05-03T00:44:34;102972.63;;;11.31;54.78
66398;BME280;54877;51.504;3.894;2023-05-03T00:46:59;102972.63;;;11.30;54.60
66398;BME280;54877;51.504;3.894;2023-05-03T00:49:25;102959.59;;;11.19;54.97
66398;BME280;54877;51.504;3.894;2023-05-03T00:51:51;102972.94;;;11.13;55.05
66398;BME280;54877;51.504;3.894;2023-05-03T00:54:17;102969.44;;;11.11;55.03
66398;BME280;54877;51.504;3.894;2023-05-03T00:56:44;102975.63;;;11.11;55.09
66398;BME280;54877;51.504;3.894;2023-05-03T00:59:10;102974.75;;;11.11;55.19
66398;BME280;54877;51.504;3.894;2023-05-03T01:01:36;102976.50;;;11.12;55.32
66398;BME280;54877;51.504;3.894;2023-05-03T01:04:02;102974.69;;;11.14;55.36
66398;BME280;54877;51.504;3.894;2023-05-03T01:06:31;102972.94;;;11.14;55.45
66398;BME280;54877;51.504;3.894;2023-05-03T01:09:09;102972.00;;;11.17;55.42
66398;BME280;54877;51.504;3.894;2023-05-03T01:11:45;102964.94;;;11.17;55.31
66398;BME280;54877;51.504;3.894;2023-05-03T01:14:27;102957.88;;;11.16;55.29
66398;BME280;54877;51.504;3.894;2023-05-03T01:17:14;102960.66;;;11.09;55.91
66398;BME280;54877;51.504;3.894;2023-05-03T01:19:49;102945.75;;;11.02;55.93
66398;BME280;54877;51.504;3.894;2023-05-03T01:25:07;102931.81;;;10.91;55.98
66398;BME280;54877;51.504;3.894;2023-05-03T01:27:34;102932.06;;;10.77;56.83
66398;BME280;54877;51.504;3.894;2023-05-03T01:30:07;102912.81;;;10.66;56.94
66398;BME280;54877;51.504;3.894;2023-05-03T01:35:14;102912.97;;;10.60;57.00
66398;BME280;54877;51.504;3.894;2023-05-03T01:37:47;102908.63;;;10.54;57.01
66398;BME280;54877;51.504;3.894;2023-05-03T01:40:15;102909.66;;;10.46;57.47
66398;BME280;54877;51.504;3.894;2023-05-03T01:42:44;102904.41;;;10.41;57.86
66398;BME280;54877;51.504;3.894;2023-05-03T01:45:10;102912.44;;;10.37;57.71
66398;BME280;54877;51.504;3.894;2023-05-03T01:47:36;102908.03;;;10.36;58.09
66398;BME280;54877;51.504;3.894;2023-05-03T01:50:01;102912.41;;;10.38;57.94
66398;BME280;54877;51.504;3.894;2023-05-03T01:52:27;102907.09;;;10.38;57.84
66398;BME280;54877;51.504;3.894;2023-05-03T01:54:52;102919.56;;;10.33;57.44
66398;BME280;54877;51.504;3.894;2023-05-03T01:57:17;102914.31;;;10.32;57.84
66398;BME280;54877;51.504;3.894;2023-05-03T01:59:43;102916.03;;;10.34;57.89
66398;BME280;54877;51.504;3.894;2023-05-03T02:02:08;102926.66;;;10.33;57.66
66398;BME280;54877;51.504;3.894;2023-05-03T02:04:34;102927.44;;;10.36;57.58
66398;BME280;54877;51.504;3.894;2023-05-03T02:07:00;102918.72;;;10.33;57.83
66398;BME280;54877;51.504;3.894;2023-05-03T02:09:25;102915.97;;;10.36;57.45
66398;BME280;54877;51.504;3.894;2023-05-03T02:11:50;102919.56;;;10.33;57.29
66398;BME280;54877;51.504;3.894;2023-05-03T02:14:16;102916.81;;;10.41;57.41
66398;BME280;54877;51.504;3.894;2023-05-03T02:16:41;102918.72;;;10.33;57.40
66398;BME280;54877;51.504;3.894;2023-05-03T02:19:07;102917.69;;;10.38;57.27
66398;BME280;54877;51.504;3.894;2023-05-03T02:21:33;102912.63;;;10.26;57.47
66398;BME280;54877;51.504;3.894;2023-05-03T02:23:59;102916.91;;;10.33;57.04
66398;BME280;54877;51.504;3.894;2023-05-03T02:26:24;102923.13;;;10.32;57.00
66398;BME280;54877;51.504;3.894;2023-05-03T02:28:50;102919.56;;;10.33;56.85
66398;BME280;54877;51.504;3.894;2023-05-03T02:31:15;102907.28;;;10.29;57.22
66398;BME280;54877;51.504;3.894;2023-05-03T02:33:41;102910.81;;;10.28;57.09
66398;BME280;54877;51.504;3.894;2023-05-03T02:36:06;102904.59;;;10.31;56.92
66398;BME280;54877;51.504;3.894;2023-05-03T02:38:32;102902.81;;;10.31;57.03
66398;BME280;54877;51.504;3.894;2023-05-03T02:40:57;102911.78;;;10.24;57.29
66398;BME280;54877;51.504;3.894;2023-05-03T02:43:23;102914.38;;;10.27;56.83
66398;BME280;54877;51.504;3.894;2023-05-03T02:45:49;102917.03;;;10.27;57.14
66398;BME280;54877;51.504;3.894;2023-05-03T02:48:14;102922.31;;;10.27;57.26
66398;BME280;54877;51.504;3.894;2023-05-03T02:50:40;102923.22;;;10.26;56.96
66398;BME280;54877;51.504;3.894;2023-05-03T02:53:05;102925.84;;;10.25;57.03
66398;BME280;54877;51.504;3.894;2023-05-03T02:55:31;102935.56;;;10.27;56.73
66398;BME280;54877;51.504;3.894;2023-05-03T02:57:57;102926.69;;;10.28;56.60
66398;BME280;54877;51.504;3.894;2023-05-03T03:00:22;102946.09;;;10.29;56.70
66398;BME280;54877;51.504;3.894;2023-05-03T03:02:47;102940.91;;;10.24;56.92
66398;BME280;54877;51.504;3.894;2023-05-03T03:05:13;102944.34;;;10.28;56.67
66398;BME280;54877;51.504;3.894;2023-05-03T03:07:38;102948.88;;;10.21;57.01
66398;BME280;54877;51.504;3.894;2023-05-03T03:10:04;102947.13;;;10.20;57.16
66398;BME280;54877;51.504;3.894;2023-05-03T03:12:31;102948.88;;;10.20;56.93
66398;BME280;54877;51.504;3.894;2023-05-03T03:14:57;102955.94;;;10.21;56.89
66398;BME280;54877;51.504;3.894;2023-05-03T03:17:22;102964.84;;;10.15;57.11
66398;BME280;54877;51.504;3.894;2023-05-03T03:19:47;102971.03;;;10.14;57.07
66398;BME280;54877;51.504;3.894;2023-05-03T03:22:13;102965.69;;;10.17;57.02
66398;BME280;54877;51.504;3.894;2023-05-03T03:24:38;102954.19;;;10.20;56.98
66398;BME280;54877;51.504;3.894;2023-05-03T03:27:03;102956.78;;;10.24;56.86
66398;BME280;54877;51.504;3.894;2023-05-03T03:29:30;102969.97;;;10.26;57.14
66398;BME280;54877;51.504;3.894;2023-05-03T03:31:56;102957.59;;;10.28;57.02
66398;BME280;54877;51.504;3.894;2023-05-03T03:34:21;102967.25;;;10.30;56.95
66398;BME280;54877;51.504;3.894;2023-05-03T03:36:47;102958.44;;;10.31;57.09
66398;BME280;54877;51.504;3.894;2023-05-03T03:39:12;102953.13;;;10.31;56.66
66398;BME280;54877;51.504;3.894;2023-05-03T03:41:37;102956.78;;;10.24;57.20
66398;BME280;54877;51.504;3.894;2023-05-03T03:44:03;102962.13;;;10.21;57.06
66398;BME280;54877;51.504;3.894;2023-05-03T03:46:29;102962.06;;;10.23;57.04
66398;BME280;54877;51.504;3.894;2023-05-03T03:48:54;102967.50;;;10.15;57.33
66398;BME280;54877;51.504;3.894;2023-05-03T03:51:19;102965.72;;;10.14;57.12
66398;BME280;54877;51.504;3.894;2023-05-03T03:53:45;102961.34;;;10.13;57.06
66398;BME280;54877;51.504;3.894;2023-05-03T03:56:10;102970.22;;;10.08;57.06
66398;BME280;54877;51.504;3.894;2023-05-03T03:58:35;102972.03;;;10.04;57.13
66398;BME280;54877;51.504;3.894;2023-05-03T04:01:01;102971.19;;;10.00;57.26
66398;BME280;54877;51.504;3.894;2023-05-03T04:03:26;102968.56;;;9.97;57.55
66398;BME280;54877;51.504;3.894;2023-05-03T04:05:52;102976.50;;;9.99;57.36
66398;BME280;54877;51.504;3.894;2023-05-03T04:08:17;102973.91;;;9.96;57.66
66398;BME280;54877;51.504;3.894;2023-05-03T04:10:43;102969.59;;;9.86;57.85
66398;BME280;54877;51.504;3.894;2023-05-03T04:13:08;102961.78;;;9.78;57.88
66398;BME280;54877;51.504;3.894;2023-05-03T04:15:34;102957.47;;;9.70;58.15
66398;BME280;54877;51.504;3.894;2023-05-03T04:17:59;102963.69;;;9.67;58.18
66398;BME280;54877;51.504;3.894;2023-05-03T04:20:24;102963.75;;;9.61;57.96
66398;BME280;54877;51.504;3.894;2023-05-03T04:22:50;102959.41;;;9.56;58.23
66398;BME280;54877;51.504;3.894;2023-05-03T04:25:15;102955.88;;;9.57;58.37
66398;BME280;54877;51.504;3.894;2023-05-03T04:27:43;102957.66;;;9.55;58.44
66398;BME280;54877;51.504;3.894;2023-05-03T04:30:09;102948.00;;;9.51;58.46
66398;BME280;54877;51.504;3.894;2023-05-03T04:32:36;102950.72;;;9.44;58.79
66398;BME280;54877;51.504;3.894;2023-05-03T04:35:05;102944.56;;;9.47;58.91
66398;BME280;54877;51.504;3.894;2023-05-03T04:37:34;102945.44;;;9.44;59.08
66398;BME280;54877;51.504;3.894;2023-05-03T04:40:03;102953.34;;;9.48;59.00
66398;BME280;54877;51.504;3.894;2023-05-03T04:42:32;102947.19;;;9.47;58.57
66398;BME280;54877;51.504;3.894;2023-05-03T04:44:58;102960.34;;;9.50;58.96
66398;BME280;54877;51.504;3.894;2023-05-03T04:47:23;102962.13;;;9.51;58.47
66398;BME280;54877;51.504;3.894;2023-05-03T04:49:49;102959.41;;;9.56;58.38
66398;BME280;54877;51.504;3.894;2023-05-03T04:52:15;102954.97;;;9.59;58.23
66398;BME280;54877;51.504;3.894;2023-05-03T04:54:40;102961.13;;;9.60;58.52
66398;BME280;54877;51.504;3.894;2023-05-03T04:57:06;102957.56;;;9.64;58.03
66398;BME280;54877;51.504;3.894;2023-05-03T04:59:31;102965.50;;;9.64;58.05
66398;BME280;54877;51.504;3.894;2023-05-03T05:01:56;102968.06;;;9.70;57.71
66398;BME280;54877;51.504;3.894;2023-05-03T05:04:22;102968.91;;;9.75;57.42
66398;BME280;54877;51.504;3.894;2023-05-03T05:06:49;102971.38;;;9.87;57.14
66398;BME280;54877;51.504;3.894;2023-05-03T05:09:22;102976.03;;;10.35;55.83
66398;BME280;54877;51.504;3.894;2023-05-03T05:11:49;102972.84;;;10.69;55.12
66398;BME280;54877;51.504;3.894;2023-05-03T05:14:14;102969.34;;;11.17;54.14
66398;BME280;54877;51.504;3.894;2023-05-03T05:16:40;102977.81;;;11.37;53.17
66398;BME280;54877;51.504;3.894;2023-05-03T05:19:05;102974.78;;;11.57;52.34
66398;BME280;54877;51.504;3.894;2023-05-03T05:21:31;102970.00;;;11.75;51.66
66398;BME280;54877;51.504;3.894;2023-05-03T05:23:58;102971.13;;;12.05;51.46
66398;BME280;54877;51.504;3.894;2023-05-03T05:26:23;102972.50;;;12.23;51.02
66398;BME280;54877;51.504;3.894;2023-05-03T05:28:49;102967.63;;;12.42;50.57
66398;BME280;54877;51.504;3.894;2023-05-03T05:31:15;102967.16;;;12.61;50.29
66398;BME280;54877;51.504;3.894;2023-05-03T05:33:40;102968.66;;;12.71;49.87
66398;BME280;54877;51.504;3.894;2023-05-03T05:36:06;102966.75;;;12.78;49.56
66398;BME280;54877;51.504;3.894;2023-05-03T05:38:31;102964.09;;;12.76;49.52
66398;BME280;54877;51.504;3.894;2023-05-03T05:40:57;102964.75;;;12.86;49.78
66398;BME280;54877;51.504;3.894;2023-05-03T05:43:22;102964.84;;;12.81;49.18
66398;BME280;54877;51.504;3.894;2023-05-03T05:45:47;102961.28;;;12.82;48.80
66398;BME280;54877;51.504;3.894;2023-05-03T05:48:13;102975.06;;;12.64;49.23
66398;BME280;54877;51.504;3.894;2023-05-03T05:50:38;102961.38;;;12.44;49.73
66398;BME280;54877;51.504;3.894;2023-05-03T05:53:04;102971.50;;;12.28;49.55
66398;BME280;54877;51.504;3.894;2023-05-03T05:55:29;102966.19;;;12.28;49.74
66398;BME280;54877;51.504;3.894;2023-05-03T05:57:55;102968.72;;;12.33;50.15
66398;BME280;54877;51.504;3.894;2023-05-03T06:00:20;102968.97;;;12.21;50.32
66398;BME280;54877;51.504;3.894;2023-05-03T06:02:45;102961.63;;;12.33;50.57
66398;BME280;54877;51.504;3.894;2023-05-03T06:05:11;102957.94;;;12.39;50.21
66398;BME280;54877;51.504;3.894;2023-05-03T06:07:37;102953.47;;;12.41;50.40
66398;BME280;54877;51.504;3.894;2023-05-03T06:10:02;102962.44;;;12.37;50.19
66398;BME280;54877;51.504;3.894;2023-05-03T06:12:28;102952.44;;;12.48;50.46
66398;BME280;54877;51.504;3.894;2023-05-03T06:14:54;102950.81;;;12.41;50.62
66398;BME280;54877;51.504;3.894;2023-05-03T06:17:20;102950.75;;;12.44;50.52
66398;BME280;54877;51.504;3.894;2023-05-03T06:19:46;102951.81;;;12.35;50.69
66398;BME280;54877;51.504;3.894;2023-05-03T06:22:13;102944.75;;;12.36;50.53
66398;BME280;54877;51.504;3.894;2023-05-03T06:24:39;102938.94;;;12.19;51.06
66398;BME280;54877;51.504;3.894;2023-05-03T06:27:04;102944.25;;;12.19;51.39
66398;BME280;54877;51.504;3.894;2023-05-03T06:29:29;102939.81;;;12.19;51.25
66398;BME280;54877;51.504;3.894;2023-05-03T06:31:55;102935.47;;;12.17;51.46
66398;BME280;54877;51.504;3.894;2023-05-03T06:34:20;102933.28;;;12.34;51.36
66398;BME280;54877;51.504;3.894;2023-05-03T06:36:46;102935.00;;;12.35;51.07
66398;BME280;54877;51.504;3.894;2023-05-03T06:39:12;102933.50;;;12.25;51.75
66398;BME280;54877;51.504;3.894;2023-05-03T06:41:37;102922.19;;;12.17;51.39
66398;BME280;54877;51.504;3.894;2023-05-03T06:44:03;102925.34;;;12.32;51.59
66398;BME280;54877;51.504;3.894;2023-05-03T06:46:28;102934.88;;;12.41;51.25
66398;BME280;54877;51.504;3.894;2023-05-03T06:48:54;102946.66;;;12.66;50.99
66398;BME280;54877;51.504;3.894;2023-05-03T06:51:22;102943.53;;;12.49;51.32
66398;BME280;54877;51.504;3.894;2023-05-03T06:53:52;102942.50;;;12.55;50.75
66398;BME280;54877;51.504;3.894;2023-05-03T06:56:19;102940.59;;;12.60;50.04
66398;BME280;54877;51.504;3.894;2023-05-03T06:58:44;102940.47;;;12.66;49.77
66398;BME280;54877;51.504;3.894;2023-05-03T07:01:09;102941.63;;;12.54;50.05
66398;BME280;54877;51.504;3.894;2023-05-03T07:03:35;102930.56;;;12.35;49.94
66398;BME280;54877;51.504;3.894;2023-05-03T07:06:01;102929.97;;;12.60;50.05
66398;BME280;54877;51.504;3.894;2023-05-03T07:08:27;102926.41;;;12.61;50.17
66398;BME280;54877;51.504;3.894;2023-05-03T07:10:53;102917.06;;;12.80;49.66
66398;BME280;54877;51.504;3.894;2023-05-03T07:13:18;102933.88;;;12.80;49.59
66398;BME280;54877;51.504;3.894;2023-05-03T07:15:43;102928.41;;;12.86;49.44
66398;BME280;54877;51.504;3.894;2023-05-03T07:18:09;102923.72;;;12.96;49.21
66398;BME280;54877;51.504;3.894;2023-05-03T07:20:35;102921.28;;;12.88;49.31
66398;BME280;54877;51.504;3.894;2023-05-03T07:23:00;102928.81;;;13.05;48.68
66398;BME280;54877;51.504;3.894;2023-05-03T07:25:26;102917.38;;;13.34;48.80
66398;BME280;54877;51.504;3.894;2023-05-03T07:27:51;102927.19;;;13.32;49.05
66398;BME280;54877;51.504;3.894;2023-05-03T07:30:17;102918.25;;;13.34;48.21
66398;BME280;54877;51.504;3.894;2023-05-03T07:32:42;102916.72;;;13.26;48.02
66398;BME280;54877;51.504;3.894;2023-05-03T07:35:08;102914.28;;;13.49;48.21
66398;BME280;54877;51.504;3.894;2023-05-03T07:37:33;102907.22;;;13.48;48.25
66398;BME280;54877;51.504;3.894;2023-05-03T07:39:59;102900.97;;;13.78;48.15
66398;BME280;54877;51.504;3.894;2023-05-03T07:42:24;102905.75;;;13.96;47.14
66398;BME280;54877;51.504;3.894;2023-05-03T07:44:51;102902.16;;;13.97;46.90
66398;BME280;54877;51.504;3.894;2023-05-03T07:47:16;102900.03;;;14.08;47.53
66398;BME280;54877;51.504;3.894;2023-05-03T07:49:42;102898.78;;;13.92;46.73
66398;BME280;54877;51.504;3.894;2023-05-03T07:52:08;102898.94;;;14.16;46.72
66398;BME280;54877;51.504;3.894;2023-05-03T07:54:33;102899.56;;;14.24;46.79
66398;BME280;54877;51.504;3.894;2023-05-03T07:56:59;102909.72;;;14.39;46.80
66398;BME280;54877;51.504;3.894;2023-05-03T07:59:24;102902.06;;;14.56;46.38
66398;BME280;54877;51.504;3.894;2023-05-03T08:01:50;102903.50;;;14.66;45.58
66398;BME280;54877;51.504;3.894;2023-05-03T08:04:15;102903.84;;;14.55;45.34
66398;BME280;54877;51.504;3.894;2023-05-03T08:06:40;102907.66;;;14.48;45.85
66398;BME280;54877;51.504;3.894;2023-05-03T08:09:06;102906.66;;;14.52;46.07
66398;BME280;54877;51.504;3.894;2023-05-03T08:11:32;102912.53;;;14.36;45.80
66398;BME280;54877;51.504;3.894;2023-05-03T08:13:58;102902.06;;;14.56;46.41
66398;BME280;54877;51.504;3.894;2023-05-03T08:16:24;102902.78;;;14.35;46.11
66398;BME280;54877;51.504;3.894;2023-05-03T08:18:49;102897.88;;;14.49;46.33
66398;BME280;54877;51.504;3.894;2023-05-03T08:21:15;102891.19;;;14.62;45.70
66398;BME280;54877;51.504;3.894;2023-05-03T08:23:41;102885.25;;;14.54;45.78
66398;BME280;54877;51.504;3.894;2023-05-03T08:26:07;102888.72;;;14.56;45.71
66398;BME280;54877;51.504;3.894;2023-05-03T08:28:34;102887.06;;;14.78;45.72
66398;BME280;54877;51.504;3.894;2023-05-03T08:30:59;102893.25;;;14.80;45.12
66398;BME280;54877;51.504;3.894;2023-05-03T08:33:27;102886.34;;;14.75;44.69
66398;BME280;54877;51.504;3.894;2023-05-03T08:35:53;102895.50;;;14.66;44.02
66398;BME280;54877;51.504;3.894;2023-05-03T08:38:18;102901.06;;;14.85;43.70
66398;BME280;54877;51.504;3.894;2023-05-03T08:40:43;102920.53;;;14.88;43.25
66398;BME280;54877;51.504;3.894;2023-05-03T08:43:14;102918.59;;;14.92;42.96
66398;BME280;54877;51.504;3.894;2023-05-03T08:45:44;102912.25;;;15.20;44.05
66398;BME280;54877;51.504;3.894;2023-05-03T08:48:09;102915.56;;;15.27;43.07
66398;BME280;54877;51.504;3.894;2023-05-03T08:50:35;102910.16;;;15.28;43.11
66398;BME280;54877;51.504;3.894;2023-05-03T08:53:06;102912.44;;;15.39;42.65
66398;BME280;54877;51.504;3.894;2023-05-03T08:55:35;102909.47;;;15.48;42.99
66398;BME280;54877;51.504;3.894;2023-05-03T08:58:02;102899.91;;;15.41;42.58
66398;BME280;54877;51.504;3.894;2023-05-03T09:00:34;102900.03;;;15.63;42.96
66398;BME280;54877;51.504;3.894;2023-05-03T09:02:59;102894.97;;;16.00;42.19
66398;BME280;54877;51.504;3.894;2023-05-03T09:05:32;102893.38;;;15.96;41.75
66398;BME280;54877;51.504;3.894;2023-05-03T09:07:59;102898.63;;;15.76;41.23
66398;BME280;54877;51.504;3.894;2023-05-03T09:10:33;102893.97;;;16.03;41.98
66398;BME280;54877;51.504;3.894;2023-05-03T09:13:02;102894.16;;;15.98;41.10
66398;BME280;54877;51.504;3.894;2023-05-03T09:15:30;102885.75;;;16.07;40.42
66398;BME280;54877;51.504;3.894;2023-05-03T09:18:09;102902.88;;;16.03;40.48
66398;BME280;54877;51.504;3.894;2023-05-03T09:20:41;102900.19;;;16.03;40.61
66398;BME280;54877;51.504;3.894;2023-05-03T09:23:15;102904.34;;;16.10;40.50
66398;BME280;54877;51.504;3.894;2023-05-03T09:28:09;102910.78;;;16.28;39.54
66398;BME280;54877;51.504;3.894;2023-05-03T09:30:35;102889.56;;;16.45;40.05
66398;BME280;54877;51.504;3.894;2023-05-03T09:33:00;102896.13;;;16.60;40.12
66398;BME280;54877;51.504;3.894;2023-05-03T09:35:26;102906.28;;;16.72;39.66
66398;BME280;54877;51.504;3.894;2023-05-03T09:37:52;102899.91;;;16.74;40.10
66398;BME280;54877;51.504;3.894;2023-05-03T09:40:18;102909.56;;;16.98;39.54
66398;BME280;54877;51.504;3.894;2023-05-03T09:45:32;102920.00;;;17.04;39.66
66398;BME280;54877;51.504;3.894;2023-05-03T09:47:59;102916.41;;;17.06;39.00
66398;BME280;54877;51.504;3.894;2023-05-03T09:50:26;102905.63;;;16.87;39.20
66398;BME280;54877;51.504;3.894;2023-05-03T09:52:51;102894.81;;;16.90;39.31
66398;BME280;54877;51.504;3.894;2023-05-03T09:55:19;102899.59;;;17.22;39.28
66398;BME280;54877;51.504;3.894;2023-05-03T09:57:46;102899.72;;;17.19;38.92
66398;BME280;54877;51.504;3.894;2023-05-03T10:00:12;102891.63;;;17.21;38.81
66398;BME280;54877;51.504;3.894;2023-05-03T10:02:39;102880.00;;;17.40;38.89
66398;BME280;54877;51.504;3.894;2023-05-03T10:05:05;102883.81;;;17.55;38.72
66398;BME280;54877;51.504;3.894;2023-05-03T10:07:33;102875.66;;;17.38;38.29
66398;BME280;54877;51.504;3.894;2023-05-03T10:09:59;102882.56;;;17.23;38.62
66398;BME280;54877;51.504;3.894;2023-05-03T10:12:25;102882.03;;;17.35;38.70
66398;BME280;54877;51.504;3.894;2023-05-03T10:14:52;102888.16;;;16.78;38.67
66398;BME280;54877;51.504;3.894;2023-05-03T10:17:27;102877.75;;;16.92;38.88
66398;BME280;54877;51.504;3.894;2023-05-03T10:19:56;102889.16;;;16.96;38.65
66398;BME280;54877;51.504;3.894;2023-05-03T10:22:31;102890.38;;;17.09;38.96
66398;BME280;54877;51.504;3.894;2023-05-03T10:27:36;102885.34;;;17.40;39.01
66398;BME280;54877;51.504;3.894;2023-05-03T10:30:26;102887.25;;;17.38;38.06
66398;BME280;54877;51.504;3.894;2023-05-03T10:35:42;102887.19;;;17.01;38.37
66398;BME280;54877;51.504;3.894;2023-05-03T10:38:25;102862.16;;;17.21;38.68
66398;BME280;54877;51.504;3.894;2023-05-03T10:40:51;102873.03;;;17.18;38.61
66398;BME280;54877;51.504;3.894;2023-05-03T10:45:56;102862.50;;;17.52;38.47
66398;BME280;54877;51.504;3.894;2023-05-03T10:48:25;102860.50;;;17.57;38.11
66398;BME280;54877;51.504;3.894;2023-05-03T10:50:52;102857.84;;;17.57;37.30
66398;BME280;54877;51.504;3.894;2023-05-03T10:56:02;102854.56;;;17.88;37.92
66398;BME280;54877;51.504;3.894;2023-05-03T10:58:32;102852.31;;;17.79;37.37
66398;BME280;54877;51.504;3.894;2023-05-03T11:01:08;102839.25;;;17.73;37.57
66398;BME280;54877;51.504;3.894;2023-05-03T11:09:14;102837.59;;;18.06;37.46
66398;BME280;54877;51.504;3.894;2023-05-03T11:11:40;102836.25;;;17.79;37.48
66398;BME280;54877;51.504;3.894;2023-05-03T11:14:06;102828.63;;;17.88;37.60
66398;BME280;54877;51.504;3.894;2023-05-03T11:16:33;102822.94;;;18.13;37.35
66398;BME280;54877;51.504;3.894;2023-05-03T11:19:00;102813.88;;;18.15;37.63
66398;BME280;54877;51.504;3.894;2023-05-03T11:21:26;102810.31;;;18.15;37.32
66398;BME280;54877;51.504;3.894;2023-05-03T11:23:52;102809.94;;;18.05;37.65
66398;BME280;54877;51.504;3.894;2023-05-03T11:26:17;102808.50;;;18.15;37.71
66398;BME280;54877;51.504;3.894;2023-05-03T11:28:47;102810.81;;;18.23;36.90
66398;BME280;54877;51.504;3.894;2023-05-03T11:31:12;102806.78;;;18.32;37.15
66398;BME280;54877;51.504;3.894;2023-05-03T11:33:39;102795.28;;;18.47;36.59
66398;BME280;54877;51.504;3.894;2023-05-03T11:36:06;102799.34;;;18.55;37.25
66398;BME280;54877;51.504;3.894;2023-05-03T11:38:33;102796.66;;;18.55;37.21
66398;BME280;54877;51.504;3.894;2023-05-03T11:41:08;102799.94;;;18.43;37.09
66398;BME280;54877;51.504;3.894;2023-05-03T11:43:40;102792.03;;;18.40;37.69
66398;BME280;54877;51.504;3.894;2023-05-03T11:46:10;102797.09;;;18.46;37.29
66398;BME280;54877;51.504;3.894;2023-05-03T11:48:39;102781.94;;;18.45;36.89
66398;BME280;54877;51.504;3.894;2023-05-03T11:51:06;102786.84;;;18.37;38.37
66398;BME280;54877;51.504;3.894;2023-05-03T11:53:35;102782.91;;;18.27;37.48
66398;BME280;54877;51.504;3.894;2023-05-03T11:56:03;102764.03;;;18.29;37.35
66398;BME280;54877;51.504;3.894;2023-05-03T11:58:31;102766.19;;;18.22;37.43
66398;BME280;54877;51.504;3.894;2023-05-03T12:00:57;102756.50;;;18.19;37.58
66398;BME280;54877;51.504;3.894;2023-05-03T12:03:23;102758.13;;;18.39;37.62
66398;BME280;54877;51.504;3.894;2023-05-03T12:05:51;102756.88;;;18.29;37.42
66398;BME280;54877;51.504;3.894;2023-05-03T12:08:17;102759.22;;;18.18;37.60
66398;BME280;54877;51.504;3.894;2023-05-03T12:10:45;102745.66;;;18.21;37.70
66398;BME280;54877;51.504;3.894;2023-05-03T12:13:10;102743.00;;;18.21;37.80
66398;BME280;54877;51.504;3.894;2023-05-03T12:15:36;102737.06;;;18.32;38.47
66398;BME280;54877;51.504;3.894;2023-05-03T12:18:06;102733.75;;;18.27;39.58
66398;BME280;54877;51.504;3.894;2023-05-03T12:20:33;102730.69;;;18.34;39.23
66398;BME280;54877;51.504;3.894;2023-05-03T12:23:01;102735.13;;;18.52;39.23
66398;BME280;54877;51.504;3.894;2023-05-03T12:25:28;102726.03;;;18.38;38.58
66398;BME280;54877;51.504;3.894;2023-05-03T12:27:55;102722.88;;;18.64;38.66
66398;BME280;54877;51.504;3.894;2023-05-03T12:30:22;102737.47;;;18.91;38.66
66398;BME280;54877;51.504;3.894;2023-05-03T12:32:47;102734.81;;;18.58;39.11
66398;BME280;54877;51.504;3.894;2023-05-03T12:35:13;102731.44;;;18.70;38.53
66398;BME280;54877;51.504;3.894;2023-05-03T12:37:38;102733.50;;;18.65;38.88
66398;BME280;54877;51.504;3.894;2023-05-03T12:40:04;102723.53;;;18.52;39.37
66398;BME280;54877;51.504;3.894;2023-05-03T12:42:30;102730.44;;;18.56;39.07
66398;BME280;54877;51.504;3.894;2023-05-03T12:44:56;102715.22;;;18.56;39.20
66398;BME280;54877;51.504;3.894;2023-05-03T12:47:22;102711.28;;;18.63;38.78
66398;BME280;54877;51.504;3.894;2023-05-03T12:49:47;102721.88;;;18.49;39.37
66398;BME280;54877;51.504;3.894;2023-05-03T12:52:13;102711.13;;;18.32;39.90
66398;BME280;54877;51.504;3.894;2023-05-03T12:54:38;102708.75;;;18.26;39.49
66398;BME280;54877;51.504;3.894;2023-05-03T12:57:03;102701.84;;;18.22;40.17
66398;BME280;54877;51.504;3.894;2023-05-03T12:59:29;102695.50;;;18.23;40.71
66398;BME280;54877;51.504;3.894;2023-05-03T13:01:55;102687.00;;;18.32;40.71
66398;BME280;54877;51.504;3.894;2023-05-03T13:04:20;102686.00;;;18.67;40.47
66398;BME280;54877;51.504;3.894;2023-05-03T13:06:46;102689.81;;;18.46;39.42
66398;BME280;54877;51.504;3.894;2023-05-03T13:09:13;102688.72;;;18.50;39.48
66398;BME280;54877;51.504;3.894;2023-05-03T13:11:40;102688.31;;;18.41;39.21
66398;BME280;54877;51.504;3.894;2023-05-03T13:14:06;102679.50;;;18.39;39.74